sensor_id;sensor_type;location;lat;lon;timestamp;P1;durP1;ratioP1;P2;durP2;ratioP2
16436;SDS011;8328;52.206;21.006;2024-01-16T00:02:22;225.65;;;42.58;;
16436;SDS011;8328;52.206;21.006;2024-01-16T00:04:48;226.35;;;44.30;;
16436;SDS011;8328;52.206;21.006;2024-01-16T00:07:14;242.27;;;45.50;;
16436;SDS011;8328;52.206;21.006;2024-01-16T00:09:40;221.13;;;42.80;;
16436;SDS011;8328;52.206;21.006;2024-01-16T00:12:08;235.75;;;44.60;;
16436;SDS011;8328;52.206;21.006;2024-01-16T00:14:36;236.10;;;45.17;;
16436;SDS011;8328;52.206;21.006;2024-01-16T00:17:02;228.18;;;44.67;;
16436;SDS011;8328;52.206;21.006;2024-01-16T00:19:29;240.35;;;44.97;;
16436;SDS011;8328;52.206;21.006;2024-01-16T00:21:55;243.05;;;46.60;;
16436;SDS011;8328;52.206;21.006;2024-01-16T00:24:21;230.38;;;42.83;;
16436;SDS011;8328;52.206;21.006;2024-01-16T00:26:47;242.32;;;45.45;;
16436;SDS011;8328;52.206;21.006;2024-01-16T00:29:15;231.50;;;43.70;;
16436;SDS011;8328;52.206;21.006;2024-01-16T00:31:41;244.73;;;46.25;;
16436;SDS011;8328;52.206;21.006;2024-01-16T00:34:07;244.85;;;45.65;;
16436;SDS011;8328;52.206;21.006;2024-01-16T00:36:33;232.38;;;44.17;;
16436;SDS011;8328;52.206;21.006;2024-01-16T00:39:00;242.45;;;44.85;;
16436;SDS011;8328;52.206;21.006;2024-01-16T00:41:27;240.98;;;45.20;;
16436;SDS011;8328;52.206;21.006;2024-01-16T00:43:53;235.40;;;44.03;;
16436;SDS011;8328;52.206;21.006;2024-01-16T00:46:19;242.23;;;45.70;;
16436;SDS011;8328;52.206;21.006;2024-01-16T00:48:46;241.45;;;45.95;;
16436;SDS011;8328;52.206;21.006;2024-01-16T00:51:12;247.93;;;46.17;;
16436;SDS011;8328;52.206;21.006;2024-01-16T00:53:39;245.80;;;45.58;;
16436;SDS011;8328;52.206;21.006;2024-01-16T00:56:08;248.60;;;46.25;;
16436;SDS011;8328;52.206;21.006;2024-01-16T00:58:35;253.68;;;47.50;;
16436;SDS011;8328;52.206;21.006;2024-01-16T01:01:01;245.82;;;45.25;;
16436;SDS011;8328;52.206;21.006;2024-01-16T01:03:27;249.98;;;47.58;;
16436;SDS011;8328;52.206;21.006;2024-01-16T01:05:53;247.45;;;46.85;;
16436;SDS011;8328;52.206;21.006;2024-01-16T01:08:19;252.52;;;46.42;;
16436;SDS011;8328;52.206;21.006;2024-01-16T01:10:45;247.25;;;45.90;;
16436;SDS011;8328;52.206;21.006;2024-01-16T01:13:12;258.48;;;48.45;;
16436;SDS011;8328;52.206;21.006;2024-01-16T01:15:38;250.13;;;46.92;;
16436;SDS011;8328;52.206;21.006;2024-01-16T01:18:04;249.80;;;46.50;;
16436;SDS011;8328;52.206;21.006;2024-01-16T01:20:31;256.92;;;48.10;;
16436;SDS011;8328;52.206;21.006;2024-01-16T01:23:00;251.32;;;46.92;;
16436;SDS011;8328;52.206;21.006;2024-01-16T01:25:31;244.35;;;45.55;;
16436;SDS011;8328;52.206;21.006;2024-01-16T01:27:58;246.75;;;46.03;;
16436;SDS011;8328;52.206;21.006;2024-01-16T01:30:33;252.13;;;47.33;;
16436;SDS011;8328;52.206;21.006;2024-01-16T01:32:59;253.05;;;47.08;;
16436;SDS011;8328;52.206;21.006;2024-01-16T01:35:25;249.38;;;46.13;;
16436;SDS011;8328;52.206;21.006;2024-01-16T01:37:52;251.80;;;46.65;;
16436;SDS011;8328;52.206;21.006;2024-01-16T01:40:18;247.10;;;45.25;;
16436;SDS011;8328;52.206;21.006;2024-01-16T01:42:44;256.30;;;48.70;;
16436;SDS011;8328;52.206;21.006;2024-01-16T01:45:10;255.80;;;47.47;;
16436;SDS011;8328;52.206;21.006;2024-01-16T01:47:39;260.55;;;49.97;;
16436;SDS011;8328;52.206;21.006;2024-01-16T01:50:09;253.27;;;47.00;;
16436;SDS011;8328;52.206;21.006;2024-01-16T01:52:36;254.57;;;46.92;;
16436;SDS011;8328;52.206;21.006;2024-01-16T01:55:04;258.73;;;48.42;;
16436;SDS011;8328;52.206;21.006;2024-01-16T01:57:33;260.00;;;48.50;;
16436;SDS011;8328;52.206;21.006;2024-01-16T01:59:59;254.65;;;47.08;;
16436;SDS011;8328;52.206;21.006;2024-01-16T02:02:26;256.52;;;48.55;;
16436;SDS011;8328;52.206;21.006;2024-01-16T02:04:52;256.05;;;47.47;;
16436;SDS011;8328;52.206;21.006;2024-01-16T02:07:19;253.10;;;46.42;;
16436;SDS011;8328;52.206;21.006;2024-01-16T02:09:45;257.55;;;47.97;;
16436;SDS011;8328;52.206;21.006;2024-01-16T02:12:11;257.90;;;48.75;;
16436;SDS011;8328;52.206;21.006;2024-01-16T02:14:37;255.52;;;48.40;;
16436;SDS011;8328;52.206;21.006;2024-01-16T02:17:03;259.85;;;49.63;;
16436;SDS011;8328;52.206;21.006;2024-01-16T02:19:29;199.87;;;42.73;;
16436;SDS011;8328;52.206;21.006;2024-01-16T02:21:59;220.00;;;43.00;;
16436;SDS011;8328;52.206;21.006;2024-01-16T02:24:25;221.63;;;42.92;;
16436;SDS011;8328;52.206;21.006;2024-01-16T02:26:51;229.27;;;43.00;;
16436;SDS011;8328;52.206;21.006;2024-01-16T02:29:18;219.30;;;43.05;;
16436;SDS011;8328;52.206;21.006;2024-01-16T02:31:44;219.98;;;43.13;;
16436;SDS011;8328;52.206;21.006;2024-01-16T02:34:10;218.80;;;42.47;;
16436;SDS011;8328;52.206;21.006;2024-01-16T02:36:36;227.93;;;42.43;;
16436;SDS011;8328;52.206;21.006;2024-01-16T02:39:03;211.90;;;43.25;;
16436;SDS011;8328;52.206;21.006;2024-01-16T02:41:31;197.32;;;42.55;;
16436;SDS011;8328;52.206;21.006;2024-01-16T02:43:57;215.73;;;42.83;;
16436;SDS011;8328;52.206;21.006;2024-01-16T02:46:23;216.18;;;42.17;;
16436;SDS011;8328;52.206;21.006;2024-01-16T02:48:49;223.48;;;43.72;;
16436;SDS011;8328;52.206;21.006;2024-01-16T02:51:16;228.00;;;44.60;;
16436;SDS011;8328;52.206;21.006;2024-01-16T02:53:42;229.60;;;43.30;;
16436;SDS011;8328;52.206;21.006;2024-01-16T02:56:08;232.00;;;43.72;;
16436;SDS011;8328;52.206;21.006;2024-01-16T02:58:35;215.02;;;43.78;;
16436;SDS011;8328;52.206;21.006;2024-01-16T03:01:01;223.30;;;42.88;;
16436;SDS011;8328;52.206;21.006;2024-01-16T03:03:27;223.43;;;43.38;;
16436;SDS011;8328;52.206;21.006;2024-01-16T03:05:53;219.73;;;44.30;;
16436;SDS011;8328;52.206;21.006;2024-01-16T03:08:21;201.07;;;41.97;;
16436;SDS011;8328;52.206;21.006;2024-01-16T03:10:47;221.35;;;42.70;;
16436;SDS011;8328;52.206;21.006;2024-01-16T03:13:13;202.63;;;42.30;;
16436;SDS011;8328;52.206;21.006;2024-01-16T03:15:39;221.02;;;43.75;;
16436;SDS011;8328;52.206;21.006;2024-01-16T03:18:06;214.02;;;43.25;;
16436;SDS011;8328;52.206;21.006;2024-01-16T03:20:32;231.23;;;44.83;;
16436;SDS011;8328;52.206;21.006;2024-01-16T03:22:58;233.95;;;42.85;;
16436;SDS011;8328;52.206;21.006;2024-01-16T03:25:24;214.68;;;42.92;;
16436;SDS011;8328;52.206;21.006;2024-01-16T03:27:50;226.85;;;43.70;;
16436;SDS011;8328;52.206;21.006;2024-01-16T03:30:16;226.23;;;43.38;;
16436;SDS011;8328;52.206;21.006;2024-01-16T03:32:42;227.00;;;43.50;;
16436;SDS011;8328;52.206;21.006;2024-01-16T03:35:08;232.23;;;44.22;;
16436;SDS011;8328;52.206;21.006;2024-01-16T03:37:34;228.48;;;44.17;;
16436;SDS011;8328;52.206;21.006;2024-01-16T03:40:00;240.70;;;43.45;;
16436;SDS011;8328;52.206;21.006;2024-01-16T03:42:26;230.75;;;43.75;;
16436;SDS011;8328;52.206;21.006;2024-01-16T03:44:53;232.85;;;44.58;;
16436;SDS011;8328;52.206;21.006;2024-01-16T03:47:19;233.27;;;43.17;;
16436;SDS011;8328;52.206;21.006;2024-01-16T03:49:45;231.93;;;43.90;;
16436;SDS011;8328;52.206;21.006;2024-01-16T03:52:12;236.38;;;44.78;;
16436;SDS011;8328;52.206;21.006;2024-01-16T03:54:38;230.98;;;43.38;;
16436;SDS011;8328;52.206;21.006;2024-01-16T03:57:04;238.07;;;45.58;;
16436;SDS011;8328;52.206;21.006;2024-01-16T03:59:30;240.43;;;45.15;;
16436;SDS011;8328;52.206;21.006;2024-01-16T04:01:56;247.38;;;47.42;;
16436;SDS011;8328;52.206;21.006;2024-01-16T04:04:22;240.95;;;46.33;;
16436;SDS011;8328;52.206;21.006;2024-01-16T04:06:48;246.07;;;46.95;;
16436;SDS011;8328;52.206;21.006;2024-01-16T04:09:15;242.40;;;45.40;;
16436;SDS011;8328;52.206;21.006;2024-01-16T04:11:41;237.18;;;44.90;;
16436;SDS011;8328;52.206;21.006;2024-01-16T04:14:07;239.73;;;45.33;;
16436;SDS011;8328;52.206;21.006;2024-01-16T04:16:33;236.15;;;44.42;;
16436;SDS011;8328;52.206;21.006;2024-01-16T04:18:59;231.63;;;44.65;;
16436;SDS011;8328;52.206;21.006;2024-01-16T04:21:25;236.55;;;45.05;;
16436;SDS011;8328;52.206;21.006;2024-01-16T04:23:51;237.90;;;49.25;;
16436;SDS011;8328;52.206;21.006;2024-01-16T04:26:17;238.73;;;46.75;;
16436;SDS011;8328;52.206;21.006;2024-01-16T04:28:44;236.15;;;44.83;;
16436;SDS011;8328;52.206;21.006;2024-01-16T04:31:10;241.05;;;46.28;;
16436;SDS011;8328;52.206;21.006;2024-01-16T04:33:37;243.30;;;45.85;;
16436;SDS011;8328;52.206;21.006;2024-01-16T04:36:04;244.82;;;46.13;;
16436;SDS011;8328;52.206;21.006;2024-01-16T04:38:30;241.02;;;44.60;;
16436;SDS011;8328;52.206;21.006;2024-01-16T04:40:56;244.98;;;45.75;;
16436;SDS011;8328;52.206;21.006;2024-01-16T04:43:22;242.35;;;45.17;;
16436;SDS011;8328;52.206;21.006;2024-01-16T04:45:48;241.85;;;44.97;;
16436;SDS011;8328;52.206;21.006;2024-01-16T04:48:14;246.93;;;46.45;;
16436;SDS011;8328;52.206;21.006;2024-01-16T04:50:40;243.07;;;45.25;;
16436;SDS011;8328;52.206;21.006;2024-01-16T04:53:06;242.40;;;45.25;;
16436;SDS011;8328;52.206;21.006;2024-01-16T04:55:32;239.70;;;44.40;;
16436;SDS011;8328;52.206;21.006;2024-01-16T04:57:58;241.25;;;45.40;;
16436;SDS011;8328;52.206;21.006;2024-01-16T05:00:25;235.40;;;43.85;;
16436;SDS011;8328;52.206;21.006;2024-01-16T05:02:51;239.95;;;45.42;;
16436;SDS011;8328;52.206;21.006;2024-01-16T05:05:17;235.77;;;43.83;;
16436;SDS011;8328;52.206;21.006;2024-01-16T05:07:43;242.57;;;45.25;;
16436;SDS011;8328;52.206;21.006;2024-01-16T05:10:10;240.20;;;45.20;;
16436;SDS011;8328;52.206;21.006;2024-01-16T05:12:40;234.68;;;43.35;;
16436;SDS011;8328;52.206;21.006;2024-01-16T05:15:06;242.95;;;45.97;;
16436;SDS011;8328;52.206;21.006;2024-01-16T05:17:32;239.95;;;44.70;;
16436;SDS011;8328;52.206;21.006;2024-01-16T05:19:59;240.25;;;45.08;;
16436;SDS011;8328;52.206;21.006;2024-01-16T05:22:25;242.77;;;45.63;;
16436;SDS011;8328;52.206;21.006;2024-01-16T05:24:51;246.70;;;46.63;;
16436;SDS011;8328;52.206;21.006;2024-01-16T05:27:18;247.27;;;46.78;;
16436;SDS011;8328;52.206;21.006;2024-01-16T05:29:45;243.95;;;45.88;;
16436;SDS011;8328;52.206;21.006;2024-01-16T05:32:11;235.77;;;44.00;;
16436;SDS011;8328;52.206;21.006;2024-01-16T05:34:38;241.15;;;44.90;;
16436;SDS011;8328;52.206;21.006;2024-01-16T05:37:04;243.65;;;45.72;;
16436;SDS011;8328;52.206;21.006;2024-01-16T05:39:30;236.15;;;43.85;;
16436;SDS011;8328;52.206;21.006;2024-01-16T05:41:57;238.57;;;44.65;;
16436;SDS011;8328;52.206;21.006;2024-01-16T05:44:22;236.73;;;43.93;;
16436;SDS011;8328;52.206;21.006;2024-01-16T05:46:48;238.93;;;44.80;;
16436;SDS011;8328;52.206;21.006;2024-01-16T05:49:15;251.13;;;47.83;;
16436;SDS011;8328;52.206;21.006;2024-01-16T05:51:41;240.65;;;45.35;;
16436;SDS011;8328;52.206;21.006;2024-01-16T05:54:07;245.20;;;46.42;;
16436;SDS011;8328;52.206;21.006;2024-01-16T05:56:33;240.13;;;44.80;;
16436;SDS011;8328;52.206;21.006;2024-01-16T05:58:59;243.95;;;45.78;;
16436;SDS011;8328;52.206;21.006;2024-01-16T06:01:25;244.15;;;46.15;;
16436;SDS011;8328;52.206;21.006;2024-01-16T06:03:52;260.05;;;50.75;;
16436;SDS011;8328;52.206;21.006;2024-01-16T06:06:18;252.80;;;47.78;;
16436;SDS011;8328;52.206;21.006;2024-01-16T06:08:44;254.85;;;47.97;;
16436;SDS011;8328;52.206;21.006;2024-01-16T06:11:11;253.75;;;47.45;;
16436;SDS011;8328;52.206;21.006;2024-01-16T06:13:38;258.23;;;49.10;;
16436;SDS011;8328;52.206;21.006;2024-01-16T06:16:07;252.65;;;47.45;;
16436;SDS011;8328;52.206;21.006;2024-01-16T06:18:34;249.30;;;46.95;;
16436;SDS011;8328;52.206;21.006;2024-01-16T06:21:00;254.85;;;48.80;;
16436;SDS011;8328;52.206;21.006;2024-01-16T06:23:26;248.18;;;46.53;;
16436;SDS011;8328;52.206;21.006;2024-01-16T06:25:53;249.80;;;47.50;;
16436;SDS011;8328;52.206;21.006;2024-01-16T06:28:19;251.85;;;47.85;;
16436;SDS011;8328;52.206;21.006;2024-01-16T06:30:45;253.02;;;47.33;;
16436;SDS011;8328;52.206;21.006;2024-01-16T06:33:11;245.90;;;46.33;;
16436;SDS011;8328;52.206;21.006;2024-01-16T06:35:37;249.38;;;47.88;;
16436;SDS011;8328;52.206;21.006;2024-01-16T06:38:03;246.48;;;46.38;;
16436;SDS011;8328;52.206;21.006;2024-01-16T06:40:30;242.73;;;45.33;;
16436;SDS011;8328;52.206;21.006;2024-01-16T06:42:56;245.85;;;46.35;;
16436;SDS011;8328;52.206;21.006;2024-01-16T06:45:22;247.10;;;46.50;;
16436;SDS011;8328;52.206;21.006;2024-01-16T06:47:48;242.20;;;46.17;;
16436;SDS011;8328;52.206;21.006;2024-01-16T06:50:14;245.52;;;46.30;;
16436;SDS011;8328;52.206;21.006;2024-01-16T06:52:40;253.47;;;48.40;;
16436;SDS011;8328;52.206;21.006;2024-01-16T06:55:06;254.73;;;48.20;;
16436;SDS011;8328;52.206;21.006;2024-01-16T06:57:32;248.77;;;46.72;;
16436;SDS011;8328;52.206;21.006;2024-01-16T06:59:58;247.70;;;46.00;;
16436;SDS011;8328;52.206;21.006;2024-01-16T07:02:25;246.63;;;46.78;;
16436;SDS011;8328;52.206;21.006;2024-01-16T07:04:51;243.10;;;45.97;;
16436;SDS011;8328;52.206;21.006;2024-01-16T07:07:17;243.48;;;45.55;;
16436;SDS011;8328;52.206;21.006;2024-01-16T07:09:43;261.67;;;46.15;;
16436;SDS011;8328;52.206;21.006;2024-01-16T07:12:09;243.65;;;45.75;;
16436;SDS011;8328;52.206;21.006;2024-01-16T07:14:35;242.07;;;46.15;;
16436;SDS011;8328;52.206;21.006;2024-01-16T07:17:03;243.63;;;45.95;;
16436;SDS011;8328;52.206;21.006;2024-01-16T07:19:32;245.30;;;47.40;;
16436;SDS011;8328;52.206;21.006;2024-01-16T07:21:58;246.60;;;48.03;;
16436;SDS011;8328;52.206;21.006;2024-01-16T07:24:24;244.07;;;45.90;;
16436;SDS011;8328;52.206;21.006;2024-01-16T07:26:50;246.38;;;47.35;;
16436;SDS011;8328;52.206;21.006;2024-01-16T07:29:19;244.85;;;46.72;;
16436;SDS011;8328;52.206;21.006;2024-01-16T07:31:46;247.75;;;47.33;;
16436;SDS011;8328;52.206;21.006;2024-01-16T07:34:12;244.30;;;46.58;;
16436;SDS011;8328;52.206;21.006;2024-01-16T07:36:45;243.85;;;47.00;;
16436;SDS011;8328;52.206;21.006;2024-01-16T07:39:11;251.00;;;47.55;;
16436;SDS011;8328;52.206;21.006;2024-01-16T07:41:37;245.55;;;46.15;;
16436;SDS011;8328;52.206;21.006;2024-01-16T07:44:03;253.52;;;48.45;;
16436;SDS011;8328;52.206;21.006;2024-01-16T07:46:29;253.32;;;48.40;;
16436;SDS011;8328;52.206;21.006;2024-01-16T07:48:55;249.95;;;46.92;;
16436;SDS011;8328;52.206;21.006;2024-01-16T07:51:21;257.80;;;49.53;;
16436;SDS011;8328;52.206;21.006;2024-01-16T07:53:47;260.45;;;49.28;;
16436;SDS011;8328;52.206;21.006;2024-01-16T07:56:15;260.83;;;52.00;;
16436;SDS011;8328;52.206;21.006;2024-01-16T07:58:41;276.30;;;49.47;;
16436;SDS011;8328;52.206;21.006;2024-01-16T08:01:07;266.35;;;50.88;;
16436;SDS011;8328;52.206;21.006;2024-01-16T08:03:33;258.15;;;49.15;;
16436;SDS011;8328;52.206;21.006;2024-01-16T08:05:59;259.35;;;49.10;;
16436;SDS011;8328;52.206;21.006;2024-01-16T08:08:25;255.57;;;48.25;;
16436;SDS011;8328;52.206;21.006;2024-01-16T08:10:52;259.83;;;49.13;;
16436;SDS011;8328;52.206;21.006;2024-01-16T08:13:18;259.75;;;49.70;;
16436;SDS011;8328;52.206;21.006;2024-01-16T08:15:44;257.73;;;48.53;;
16436;SDS011;8328;52.206;21.006;2024-01-16T08:18:10;257.10;;;47.83;;
16436;SDS011;8328;52.206;21.006;2024-01-16T08:20:36;261.80;;;50.23;;
16436;SDS011;8328;52.206;21.006;2024-01-16T08:23:03;257.50;;;49.78;;
16436;SDS011;8328;52.206;21.006;2024-01-16T08:25:29;256.13;;;48.45;;
16436;SDS011;8328;52.206;21.006;2024-01-16T08:27:55;257.88;;;48.08;;
16436;SDS011;8328;52.206;21.006;2024-01-16T08:30:21;272.27;;;53.50;;
16436;SDS011;8328;52.206;21.006;2024-01-16T08:32:53;263.08;;;50.10;;
16436;SDS011;8328;52.206;21.006;2024-01-16T08:35:20;245.68;;;46.63;;
16436;SDS011;8328;52.206;21.006;2024-01-16T08:37:47;247.45;;;47.40;;
16436;SDS011;8328;52.206;21.006;2024-01-16T08:40:13;241.98;;;45.92;;
16436;SDS011;8328;52.206;21.006;2024-01-16T08:42:39;244.13;;;46.47;;
16436;SDS011;8328;52.206;21.006;2024-01-16T08:45:05;254.23;;;49.58;;
16436;SDS011;8328;52.206;21.006;2024-01-16T08:47:32;252.43;;;47.25;;
16436;SDS011;8328;52.206;21.006;2024-01-16T08:49:58;254.20;;;48.50;;
16436;SDS011;8328;52.206;21.006;2024-01-16T08:52:43;251.35;;;48.05;;
16436;SDS011;8328;52.206;21.006;2024-01-16T08:55:09;245.75;;;45.45;;
16436;SDS011;8328;52.206;21.006;2024-01-16T08:57:38;257.63;;;49.58;;
16436;SDS011;8328;52.206;21.006;2024-01-16T09:00:08;250.15;;;47.47;;
16436;SDS011;8328;52.206;21.006;2024-01-16T09:02:37;252.52;;;47.22;;
16436;SDS011;8328;52.206;21.006;2024-01-16T09:05:03;245.18;;;46.47;;
16436;SDS011;8328;52.206;21.006;2024-01-16T09:07:30;252.95;;;48.45;;
16436;SDS011;8328;52.206;21.006;2024-01-16T09:12:45;247.13;;;47.58;;
16436;SDS011;8328;52.206;21.006;2024-01-16T09:15:11;245.02;;;46.42;;
16436;SDS011;8328;52.206;21.006;2024-01-16T09:17:37;247.98;;;47.45;;
16436;SDS011;8328;52.206;21.006;2024-01-16T09:20:04;243.30;;;46.15;;
16436;SDS011;8328;52.206;21.006;2024-01-16T09:22:31;244.43;;;46.92;;
16436;SDS011;8328;52.206;21.006;2024-01-16T09:25:00;240.60;;;45.38;;
16436;SDS011;8328;52.206;21.006;2024-01-16T09:27:26;242.05;;;45.88;;
16436;SDS011;8328;52.206;21.006;2024-01-16T09:29:52;239.23;;;45.72;;
16436;SDS011;8328;52.206;21.006;2024-01-16T09:32:18;239.25;;;45.30;;
16436;SDS011;8328;52.206;21.006;2024-01-16T09:34:44;244.37;;;47.43;;
16436;SDS011;8328;52.206;21.006;2024-01-16T09:37:10;238.13;;;45.47;;
16436;SDS011;8328;52.206;21.006;2024-01-16T09:39:39;241.48;;;45.78;;
16436;SDS011;8328;52.206;21.006;2024-01-16T09:42:07;236.80;;;44.80;;
16436;SDS011;8328;52.206;21.006;2024-01-16T09:44:33;238.02;;;45.15;;
16436;SDS011;8328;52.206;21.006;2024-01-16T09:46:59;236.93;;;46.47;;
16436;SDS011;8328;52.206;21.006;2024-01-16T09:49:27;241.02;;;45.88;;
16436;SDS011;8328;52.206;21.006;2024-01-16T09:51:53;239.02;;;46.22;;
16436;SDS011;8328;52.206;21.006;2024-01-16T09:54:19;243.48;;;46.38;;
16436;SDS011;8328;52.206;21.006;2024-01-16T09:56:45;241.35;;;46.17;;
16436;SDS011;8328;52.206;21.006;2024-01-16T09:59:17;237.98;;;44.97;;
16436;SDS011;8328;52.206;21.006;2024-01-16T10:01:46;234.73;;;45.00;;
16436;SDS011;8328;52.206;21.006;2024-01-16T10:04:15;232.48;;;44.20;;
16436;SDS011;8328;52.206;21.006;2024-01-16T10:06:41;233.57;;;44.25;;
16436;SDS011;8328;52.206;21.006;2024-01-16T10:09:08;231.90;;;44.03;;
16436;SDS011;8328;52.206;21.006;2024-01-16T10:11:38;231.32;;;44.13;;
16436;SDS011;8328;52.206;21.006;2024-01-16T10:14:05;235.10;;;44.83;;
16436;SDS011;8328;52.206;21.006;2024-01-16T10:19:35;231.43;;;44.63;;
16436;SDS011;8328;52.206;21.006;2024-01-16T10:22:23;227.40;;;44.17;;
16436;SDS011;8328;52.206;21.006;2024-01-16T10:27:31;233.13;;;44.72;;
16436;SDS011;8328;52.206;21.006;2024-01-16T10:29:58;242.00;;;45.38;;
16436;SDS011;8328;52.206;21.006;2024-01-16T10:32:29;234.40;;;45.10;;
16436;SDS011;8328;52.206;21.006;2024-01-16T10:35:05;231.77;;;44.22;;
16436;SDS011;8328;52.206;21.006;2024-01-16T10:40:09;232.85;;;44.58;;
16436;SDS011;8328;52.206;21.006;2024-01-16T10:42:36;233.07;;;44.03;;
16436;SDS011;8328;52.206;21.006;2024-01-16T10:45:04;232.93;;;43.85;;
16436;SDS011;8328;52.206;21.006;2024-01-16T10:47:30;244.65;;;45.47;;
16436;SDS011;8328;52.206;21.006;2024-01-16T10:50:01;234.48;;;44.50;;
16436;SDS011;8328;52.206;21.006;2024-01-16T10:52:28;235.75;;;43.33;;
16436;SDS011;8328;52.206;21.006;2024-01-16T10:54:58;244.60;;;46.95;;
16436;SDS011;8328;52.206;21.006;2024-01-16T10:57:30;244.63;;;45.13;;
16436;SDS011;8328;52.206;21.006;2024-01-16T11:02:24;237.93;;;43.88;;
16436;SDS011;8328;52.206;21.006;2024-01-16T11:05:01;240.85;;;45.15;;
16436;SDS011;8328;52.206;21.006;2024-01-16T11:07:31;244.20;;;45.70;;
16436;SDS011;8328;52.206;21.006;2024-01-16T11:09:57;239.27;;;43.95;;
16436;SDS011;8328;52.206;21.006;2024-01-16T11:12:23;251.50;;;47.63;;
16436;SDS011;8328;52.206;21.006;2024-01-16T11:14:51;251.85;;;47.15;;
16436;SDS011;8328;52.206;21.006;2024-01-16T11:17:19;232.73;;;42.95;;
16436;SDS011;8328;52.206;21.006;2024-01-16T11:19:46;241.38;;;45.17;;
16436;SDS011;8328;52.206;21.006;2024-01-16T11:22:12;242.88;;;44.85;;
16436;SDS011;8328;52.206;21.006;2024-01-16T11:24:39;236.45;;;45.45;;
16436;SDS011;8328;52.206;21.006;2024-01-16T11:27:06;240.25;;;46.42;;
16436;SDS011;8328;52.206;21.006;2024-01-16T11:29:33;252.13;;;48.35;;
16436;SDS011;8328;52.206;21.006;2024-01-16T11:32:01;242.40;;;45.10;;
16436;SDS011;8328;52.206;21.006;2024-01-16T11:37:07;232.13;;;43.75;;
16436;SDS011;8328;52.206;21.006;2024-01-16T11:39:33;238.77;;;45.42;;
16436;SDS011;8328;52.206;21.006;2024-01-16T11:41:59;234.63;;;44.65;;
16436;SDS011;8328;52.206;21.006;2024-01-16T11:44:44;232.82;;;45.22;;
16436;SDS011;8328;52.206;21.006;2024-01-16T11:47:18;231.13;;;44.00;;
16436;SDS011;8328;52.206;21.006;2024-01-16T11:49:45;234.10;;;44.92;;
16436;SDS011;8328;52.206;21.006;2024-01-16T11:52:11;236.93;;;45.83;;
16436;SDS011;8328;52.206;21.006;2024-01-16T11:54:38;235.60;;;45.65;;
16436;SDS011;8328;52.206;21.006;2024-01-16T11:57:09;232.77;;;45.45;;
16436;SDS011;8328;52.206;21.006;2024-01-16T12:02:26;241.07;;;48.95;;
16436;SDS011;8328;52.206;21.006;2024-01-16T12:05:14;237.10;;;45.97;;
16436;SDS011;8328;52.206;21.006;2024-01-16T12:07:47;237.27;;;47.45;;
16436;SDS011;8328;52.206;21.006;2024-01-16T12:10:15;232.15;;;45.67;;
16436;SDS011;8328;52.206;21.006;2024-01-16T12:12:41;222.82;;;44.30;;
16436;SDS011;8328;52.206;21.006;2024-01-16T12:15:12;229.20;;;45.33;;
16436;SDS011;8328;52.206;21.006;2024-01-16T12:17:51;221.65;;;43.75;;
16436;SDS011;8328;52.206;21.006;2024-01-16T12:20:18;229.70;;;46.20;;
16436;SDS011;8328;52.206;21.006;2024-01-16T12:22:44;224.07;;;43.95;;
16436;SDS011;8328;52.206;21.006;2024-01-16T12:25:10;232.20;;;45.33;;
16436;SDS011;8328;52.206;21.006;2024-01-16T12:30:59;221.38;;;43.78;;
16436;SDS011;8328;52.206;21.006;2024-01-16T12:33:25;218.13;;;44.00;;
16436;SDS011;8328;52.206;21.006;2024-01-16T12:36:00;220.43;;;44.05;;
16436;SDS011;8328;52.206;21.006;2024-01-16T12:38:27;220.80;;;43.97;;
16436;SDS011;8328;52.206;21.006;2024-01-16T12:40:56;222.43;;;44.78;;
16436;SDS011;8328;52.206;21.006;2024-01-16T12:43:23;230.98;;;45.70;;
16436;SDS011;8328;52.206;21.006;2024-01-16T12:45:56;221.32;;;45.05;;
16436;SDS011;8328;52.206;21.006;2024-01-16T12:48:25;222.25;;;46.13;;
16436;SDS011;8328;52.206;21.006;2024-01-16T12:50:58;227.65;;;46.95;;
16436;SDS011;8328;52.206;21.006;2024-01-16T12:53:32;236.32;;;47.05;;
16436;SDS011;8328;52.206;21.006;2024-01-16T12:56:01;227.77;;;46.40;;
16436;SDS011;8328;52.206;21.006;2024-01-16T12:58:32;223.00;;;44.10;;
16436;SDS011;8328;52.206;21.006;2024-01-16T13:03:51;238.32;;;48.30;;
16436;SDS011;8328;52.206;21.006;2024-01-16T13:06:17;221.80;;;45.17;;
16436;SDS011;8328;52.206;21.006;2024-01-16T13:08:45;222.65;;;44.50;;
16436;SDS011;8328;52.206;21.006;2024-01-16T13:11:11;216.95;;;42.50;;
16436;SDS011;8328;52.206;21.006;2024-01-16T13:13:40;221.60;;;44.10;;
16436;SDS011;8328;52.206;21.006;2024-01-16T13:16:06;219.63;;;43.45;;
16436;SDS011;8328;52.206;21.006;2024-01-16T13:18:33;218.05;;;42.83;;
16436;SDS011;8328;52.206;21.006;2024-01-16T13:20:59;233.00;;;47.28;;
16436;SDS011;8328;52.206;21.006;2024-01-16T13:23:26;225.02;;;44.28;;
16436;SDS011;8328;52.206;21.006;2024-01-16T13:25:53;221.52;;;45.45;;
16436;SDS011;8328;52.206;21.006;2024-01-16T13:28:25;224.95;;;45.35;;
16436;SDS011;8328;52.206;21.006;2024-01-16T13:30:55;218.88;;;44.65;;
16436;SDS011;8328;52.206;21.006;2024-01-16T13:33:22;222.82;;;44.78;;
16436;SDS011;8328;52.206;21.006;2024-01-16T13:35:52;223.73;;;45.10;;
16436;SDS011;8328;52.206;21.006;2024-01-16T13:38:19;220.02;;;44.30;;
16436;SDS011;8328;52.206;21.006;2024-01-16T13:40:45;225.65;;;44.63;;
16436;SDS011;8328;52.206;21.006;2024-01-16T13:43:14;220.93;;;43.08;;
16436;SDS011;8328;52.206;21.006;2024-01-16T13:45:40;227.27;;;45.50;;
16436;SDS011;8328;52.206;21.006;2024-01-16T13:48:12;223.73;;;44.15;;
16436;SDS011;8328;52.206;21.006;2024-01-16T13:50:38;223.90;;;43.58;;
16436;SDS011;8328;52.206;21.006;2024-01-16T13:53:04;222.57;;;43.63;;
16436;SDS011;8328;52.206;21.006;2024-01-16T13:55:30;221.18;;;43.85;;
16436;SDS011;8328;52.206;21.006;2024-01-16T13:57:57;235.30;;;45.85;;
16436;SDS011;8328;52.206;21.006;2024-01-16T14:00:23;227.50;;;45.17;;
16436;SDS011;8328;52.206;21.006;2024-01-16T14:02:49;225.13;;;44.95;;
16436;SDS011;8328;52.206;21.006;2024-01-16T14:05:17;216.55;;;42.85;;
16436;SDS011;8328;52.206;21.006;2024-01-16T14:07:47;228.07;;;45.88;;
16436;SDS011;8328;52.206;21.006;2024-01-16T14:10:21;222.00;;;44.47;;
16436;SDS011;8328;52.206;21.006;2024-01-16T14:12:48;212.82;;;43.20;;
16436;SDS011;8328;52.206;21.006;2024-01-16T14:15:16;218.40;;;43.95;;
16436;SDS011;8328;52.206;21.006;2024-01-16T14:17:52;227.15;;;44.95;;
16436;SDS011;8328;52.206;21.006;2024-01-16T14:20:19;222.80;;;44.63;;
16436;SDS011;8328;52.206;21.006;2024-01-16T14:22:48;219.85;;;43.85;;
16436;SDS011;8328;52.206;21.006;2024-01-16T14:25:14;224.57;;;46.08;;
16436;SDS011;8328;52.206;21.006;2024-01-16T14:27:44;233.93;;;47.40;;
16436;SDS011;8328;52.206;21.006;2024-01-16T14:30:20;220.00;;;44.65;;
16436;SDS011;8328;52.206;21.006;2024-01-16T14:32:46;227.82;;;45.25;;
16436;SDS011;8328;52.206;21.006;2024-01-16T14:35:13;226.90;;;46.72;;